createdAt,value
2023-07-04T00:00:07.331Z,21.20
2023-07-04T00:02:13.428Z,21.10
2023-07-04T00:04:24.440Z,21.10
2023-07-04T00:06:30.125Z,21.10
2023-07-04T00:08:35.193Z,21.10
2023-07-04T00:10:38.135Z,21.10
2023-07-04T00:12:41.491Z,21.10
2023-07-04T00:14:44.620Z,21.10
2023-07-04T00:16:46.392Z,21.10
2023-07-04T00:18:48.301Z,21.10
2023-07-04T00:20:56.708Z,21.00
2023-07-04T00:23:00.671Z,21.00
2023-07-04T00:25:02.472Z,21.00
2023-07-04T00:27:04.973Z,21.00
2023-07-04T00:29:07.257Z,21.00
2023-07-04T00:31:09.843Z,21.00
2023-07-04T00:33:11.806Z,21.00
2023-07-04T00:35:13.598Z,21.00
2023-07-04T00:37:15.292Z,20.90
2023-07-04T00:39:16.967Z,21.00
2023-07-04T00:41:23.165Z,21.00
2023-07-04T00:43:25.648Z,20.90
2023-07-04T00:45:28.653Z,20.90
2023-07-04T00:47:44.739Z,20.90
2023-07-04T00:49:49.376Z,20.90
2023-07-04T00:52:24.546Z,20.80
2023-07-04T00:54:30.333Z,20.80
2023-07-04T00:56:32.071Z,20.80
2023-07-04T00:58:34.631Z,20.80
2023-07-04T01:00:38.245Z,20.80
2023-07-04T01:02:39.987Z,20.70
2023-07-04T01:04:42.922Z,20.70
2023-07-04T01:06:56.245Z,20.70
2023-07-04T01:09:00.292Z,20.70
2023-07-04T01:11:06.649Z,20.60
2023-07-04T01:13:28.187Z,20.60
2023-07-04T01:15:31.504Z,20.60
2023-07-04T01:17:33.839Z,20.60
2023-07-04T01:19:39.655Z,20.60
2023-07-04T01:21:42.089Z,20.60
2023-07-04T01:23:48.855Z,20.50
2023-07-04T01:25:57.052Z,20.50
2023-07-04T01:28:04.161Z,20.50
2023-07-04T01:30:13.685Z,20.50
2023-07-04T01:32:16.326Z,20.40
2023-07-04T01:34:21.501Z,20.40
2023-07-04T01:36:25.688Z,20.40
2023-07-04T01:38:31.993Z,20.40
2023-07-04T01:40:35.212Z,20.40
2023-07-04T01:42:37.413Z,20.40
2023-07-04T01:44:39.395Z,20.40
2023-07-04T01:46:41.062Z,20.30
2023-07-04T01:48:42.989Z,20.30
2023-07-04T01:50:44.808Z,20.40
2023-07-04T01:52:46.512Z,20.30
2023-07-04T01:54:48.265Z,20.30
2023-07-04T01:56:54.099Z,20.30
2023-07-04T01:59:02.616Z,20.20
2023-07-04T02:01:04.537Z,20.30
2023-07-04T02:03:06.283Z,20.20
2023-07-04T02:05:08.334Z,20.20
2023-07-04T02:07:12.456Z,20.20
2023-07-04T02:09:17.658Z,20.20
2023-07-04T02:11:19.360Z,20.20
2023-07-04T02:13:21.140Z,20.10
2023-07-04T02:15:24.806Z,20.10
2023-07-04T02:17:26.580Z,20.10
2023-07-04T02:19:33.525Z,20.10
2023-07-04T02:21:35.970Z,20.10
2023-07-04T02:23:37.631Z,20.10
2023-07-04T02:25:42.531Z,20.10
2023-07-04T02:27:44.230Z,20.00
2023-07-04T02:29:49.203Z,20.00
2023-07-04T02:31:51.055Z,20.00
2023-07-04T02:33:53.030Z,20.00
2023-07-04T02:35:54.752Z,20.00
2023-07-04T02:37:57.558Z,20.00
2023-07-04T02:40:00.042Z,19.90
2023-07-04T02:42:03.069Z,20.00
2023-07-04T02:44:04.897Z,19.90
2023-07-04T02:46:07.435Z,19.90
2023-07-04T02:48:11.778Z,19.90
2023-07-04T02:50:13.838Z,19.90
2023-07-04T02:52:16.418Z,19.90
2023-07-04T02:54:18.134Z,19.90
2023-07-04T02:56:21.693Z,19.90
2023-07-04T02:58:23.834Z,19.90
2023-07-04T03:00:26.520Z,19.90
2023-07-04T03:02:28.405Z,19.90
2023-07-04T03:04:31.922Z,19.80
2023-07-04T03:06:33.973Z,19.80
2023-07-04T03:08:36.414Z,19.80
2023-07-04T03:10:39.217Z,19.80
2023-07-04T03:12:41.821Z,19.80
2023-07-04T03:14:43.591Z,19.80
2023-07-04T03:16:45.273Z,19.80
2023-07-04T03:18:47.610Z,19.80
2023-07-04T03:20:50.515Z,19.80
2023-07-04T03:23:04.303Z,19.80
2023-07-04T03:25:07.067Z,19.80
2023-07-04T03:27:10.337Z,19.80
2023-07-04T03:29:12.372Z,19.80
2023-07-04T03:31:14.496Z,19.80
2023-07-04T03:33:16.346Z,19.80
2023-07-04T03:35:18.323Z,19.80
2023-07-04T03:37:20.001Z,19.80
2023-07-04T03:39:21.669Z,19.80
2023-07-04T03:41:24.245Z,19.70
2023-07-04T03:43:26.154Z,19.70
2023-07-04T03:45:27.862Z,19.70
2023-07-04T03:47:29.915Z,19.70
2023-07-04T03:49:31.708Z,19.70
2023-07-04T03:51:33.406Z,19.70
2023-07-04T03:53:38.434Z,19.80
2023-07-04T03:55:40.609Z,19.70
2023-07-04T03:57:42.326Z,19.70
2023-07-04T03:59:49.910Z,19.70
2023-07-04T04:01:51.610Z,19.70
2023-07-04T04:03:55.192Z,19.70
2023-07-04T04:05:57.035Z,19.70
2023-07-04T04:07:58.696Z,19.70
2023-07-04T04:10:00.397Z,19.80
2023-07-04T04:12:02.485Z,19.70
2023-07-04T04:14:04.165Z,19.70
2023-07-04T04:16:05.858Z,19.70
2023-07-04T04:18:07.568Z,19.70
2023-07-04T04:20:15.038Z,19.70
2023-07-04T04:22:16.962Z,19.70
2023-07-04T04:24:18.771Z,19.80
2023-07-04T04:26:21.295Z,19.70
2023-07-04T04:28:23.069Z,19.70
2023-07-04T04:30:27.354Z,19.70
2023-07-04T04:32:29.010Z,19.70
2023-07-04T04:34:30.697Z,19.70
2023-07-04T04:36:33.147Z,19.70
2023-07-04T04:38:37.402Z,19.70
2023-07-04T04:40:39.717Z,19.70
2023-07-04T04:42:44.680Z,19.70
2023-07-04T04:44:46.494Z,19.70
2023-07-04T04:46:50.958Z,19.70
2023-07-04T04:48:52.724Z,19.70
2023-07-04T04:50:54.561Z,19.70
2023-07-04T04:52:59.318Z,19.70
2023-07-04T04:55:04.871Z,19.70
2023-07-04T04:57:06.552Z,19.70
2023-07-04T04:59:08.454Z,19.70
2023-07-04T05:01:17.628Z,19.70
2023-07-04T05:03:19.366Z,19.70
2023-07-04T05:05:21.154Z,19.70
2023-07-04T05:07:25.105Z,19.70
2023-07-04T05:09:26.815Z,19.70
2023-07-04T05:11:28.506Z,19.70
2023-07-04T05:13:30.201Z,19.70
2023-07-04T05:15:31.908Z,19.70
2023-07-04T05:17:33.611Z,19.70
2023-07-04T05:19:35.333Z,19.70
2023-07-04T05:21:37.078Z,19.70
2023-07-04T05:23:39.847Z,19.70
2023-07-04T05:25:41.595Z,19.80
2023-07-04T05:27:43.347Z,19.80
2023-07-04T05:29:48.574Z,19.90
2023-07-04T05:31:50.277Z,19.90
2023-07-04T05:33:52.717Z,19.90
2023-07-04T05:36:04.553Z,19.90
2023-07-04T05:38:06.273Z,20.00
2023-07-04T05:40:09.493Z,20.00
2023-07-04T05:42:11.229Z,20.00
2023-07-04T05:44:13.187Z,20.10
2023-07-04T05:46:15.886Z,20.10
2023-07-04T05:48:17.827Z,20.20
2023-07-04T05:50:19.526Z,20.20
2023-07-04T05:52:21.270Z,20.20
2023-07-04T05:54:22.912Z,20.30
2023-07-04T05:56:26.091Z,20.30
2023-07-04T05:58:27.785Z,20.30
2023-07-04T06:00:29.590Z,20.40
2023-07-04T06:02:33.037Z,20.40
2023-07-04T06:04:34.822Z,20.40
2023-07-04T06:06:40.682Z,20.50
2023-07-04T06:08:42.825Z,20.50
2023-07-04T06:10:44.532Z,20.60
2023-07-04T06:12:46.248Z,20.60
2023-07-04T06:14:47.928Z,20.60
2023-07-04T06:16:49.594Z,20.70
2023-07-04T06:18:53.824Z,20.70
2023-07-04T06:21:05.315Z,20.80
2023-07-04T06:23:07.029Z,20.80
2023-07-04T06:25:09.116Z,20.90
2023-07-04T06:27:11.436Z,20.90
2023-07-04T06:29:21.800Z,20.90
2023-07-04T06:31:23.658Z,21.00
2023-07-04T06:33:25.384Z,21.00
2023-07-04T06:35:27.104Z,21.00
2023-07-04T06:37:28.829Z,21.10
2023-07-04T06:39:36.603Z,21.10
2023-07-04T06:41:38.349Z,21.20
2023-07-04T06:43:41.638Z,21.20
2023-07-04T06:45:44.050Z,21.30
2023-07-04T06:47:45.739Z,21.30
2023-07-04T06:49:47.897Z,21.30
2023-07-04T06:51:49.653Z,21.30
2023-07-04T06:53:51.743Z,21.40
2023-07-04T06:55:54.163Z,21.40
2023-07-04T06:57:56.049Z,21.50
2023-07-04T06:59:57.814Z,21.50
2023-07-04T07:01:59.758Z,21.50
2023-07-04T07:04:01.731Z,21.50
2023-07-04T07:06:04.664Z,21.50
2023-07-04T07:08:06.376Z,21.60
2023-07-04T07:10:08.336Z,21.60
2023-07-04T07:12:10.969Z,21.60
2023-07-04T07:14:12.670Z,21.60
2023-07-04T07:16:17.513Z,21.60
2023-07-04T07:18:19.337Z,21.60
2023-07-04T07:20:21.069Z,21.60
2023-07-04T07:22:22.812Z,21.60
2023-07-04T07:24:26.956Z,21.70
2023-07-04T07:26:29.357Z,21.60
2023-07-04T07:28:35.684Z,21.70
2023-07-04T07:30:37.902Z,21.70
2023-07-04T07:32:40.608Z,21.70
2023-07-04T07:34:42.540Z,21.70
2023-07-04T07:36:44.698Z,21.70
2023-07-04T07:38:46.760Z,21.70
2023-07-04T07:40:54.612Z,21.70
2023-07-04T07:42:56.429Z,21.70
2023-07-04T07:44:58.314Z,21.70
2023-07-04T07:47:00.000Z,21.70
2023-07-04T07:49:01.988Z,21.80
2023-07-04T07:51:03.759Z,21.80
2023-07-04T07:53:05.469Z,21.80
2023-07-04T07:55:07.713Z,21.80
2023-07-04T07:57:15.273Z,21.90
2023-07-04T07:59:16.925Z,21.90
2023-07-04T08:01:18.648Z,21.90
2023-07-04T08:03:20.525Z,21.90
2023-07-04T08:05:22.430Z,22.00
2023-07-04T08:07:36.180Z,22.00
2023-07-04T08:09:38.881Z,22.00
2023-07-04T08:11:41.048Z,22.10
2023-07-04T08:13:43.039Z,22.10
2023-07-04T08:15:51.153Z,22.10
2023-07-04T08:17:52.918Z,22.20
2023-07-04T08:19:54.701Z,22.20
2023-07-04T08:21:56.557Z,22.20
2023-07-04T08:23:59.341Z,22.20
2023-07-04T08:26:01.087Z,22.20
2023-07-04T08:28:02.772Z,22.30
2023-07-04T08:30:05.023Z,22.30
2023-07-04T08:32:08.782Z,22.30
2023-07-04T08:34:11.537Z,22.40
2023-07-04T08:36:13.750Z,22.40
2023-07-04T08:38:17.061Z,22.40
2023-07-04T08:40:19.768Z,22.50
2023-07-04T08:42:22.727Z,22.50
2023-07-04T08:44:25.424Z,22.50
2023-07-04T08:46:29.457Z,22.60
2023-07-04T08:48:31.359Z,22.60
2023-07-04T08:50:36.300Z,22.60
2023-07-04T08:52:44.330Z,22.60
2023-07-04T08:54:46.094Z,22.70
2023-07-04T08:56:48.161Z,22.70
2023-07-04T08:58:54.987Z,22.80
2023-07-04T09:00:58.136Z,22.80
2023-07-04T09:03:03.016Z,22.80
2023-07-04T09:05:17.904Z,22.90
2023-07-04T09:07:29.035Z,22.90
2023-07-04T09:09:40.314Z,22.90
2023-07-04T09:11:42.614Z,23.00
2023-07-04T09:13:45.685Z,23.00
2023-07-04T09:15:48.142Z,23.10
2023-07-04T09:18:25.583Z,23.10
2023-07-04T09:20:30.362Z,23.10
2023-07-04T09:22:32.103Z,23.10
2023-07-04T09:24:35.368Z,23.20
2023-07-04T09:26:37.392Z,23.20
2023-07-04T09:28:41.814Z,23.20
2023-07-04T09:30:44.285Z,23.30
2023-07-04T09:32:48.576Z,23.30
2023-07-04T09:34:52.549Z,23.30
2023-07-04T09:36:55.240Z,23.30
2023-07-04T09:38:58.021Z,23.40
2023-07-04T09:41:00.836Z,23.40
2023-07-04T09:43:02.710Z,23.40
2023-07-04T09:45:08.818Z,23.50
2023-07-04T09:47:18.705Z,23.50
2023-07-04T09:49:20.394Z,23.60
2023-07-04T09:51:27.078Z,23.60
2023-07-04T09:53:29.054Z,23.70
2023-07-04T09:55:31.985Z,23.70
2023-07-04T09:57:33.871Z,23.70
2023-07-04T09:59:35.666Z,23.80
2023-07-04T10:01:38.776Z,23.80
2023-07-04T10:03:41.070Z,23.90
2023-07-04T10:05:43.407Z,23.90
2023-07-04T10:07:45.137Z,24.00
2023-07-04T10:09:58.730Z,24.00
2023-07-04T10:12:13.987Z,24.10
2023-07-04T10:14:16.419Z,24.10
2023-07-04T10:16:24.274Z,24.20
2023-07-04T10:18:28.834Z,24.30
2023-07-04T10:20:36.328Z,24.30
2023-07-04T10:22:47.039Z,24.40
2023-07-04T10:24:49.405Z,24.40
2023-07-04T10:26:55.947Z,24.50
2023-07-04T10:28:58.686Z,24.60
2023-07-04T10:31:04.021Z,24.60
2023-07-04T10:33:10.695Z,24.70
2023-07-04T10:35:14.645Z,24.70
2023-07-04T10:37:42.725Z,24.80
2023-07-04T10:39:44.757Z,24.90
2023-07-04T10:41:49.558Z,24.90
2023-07-04T10:43:54.083Z,25.00
2023-07-04T10:46:01.723Z,25.00
2023-07-04T10:48:07.335Z,25.00
2023-07-04T10:50:13.339Z,25.10
2023-07-04T10:52:22.723Z,25.20
2023-07-04T10:54:24.424Z,25.30
2023-07-04T10:56:29.582Z,25.40
2023-07-04T10:58:34.459Z,25.50
2023-07-04T11:00:38.467Z,25.50
2023-07-04T11:02:49.544Z,25.60
2023-07-04T11:04:51.439Z,25.70
2023-07-04T11:06:55.891Z,25.80
2023-07-04T11:08:58.476Z,25.90
2023-07-04T11:11:01.962Z,26.00
2023-07-04T11:13:03.728Z,26.10
2023-07-04T11:15:09.887Z,26.10
2023-07-04T11:17:13.089Z,26.20
2023-07-04T11:19:16.895Z,26.30
2023-07-04T11:21:21.157Z,26.30
2023-07-04T11:23:23.876Z,26.40
2023-07-04T11:25:25.579Z,26.40
2023-07-04T11:27:31.483Z,26.40
2023-07-04T11:29:45.339Z,26.50
2023-07-04T11:32:03.312Z,26.50
2023-07-04T11:34:08.813Z,26.50
2023-07-04T11:36:18.518Z,26.60
2023-07-04T11:38:20.266Z,26.60
2023-07-04T11:40:25.732Z,26.70
2023-07-04T11:42:27.423Z,26.70
2023-07-04T11:44:29.559Z,26.80
2023-07-04T11:46:31.441Z,26.80
2023-07-04T11:48:34.305Z,26.80
2023-07-04T11:50:40.039Z,26.80
2023-07-04T11:52:43.368Z,26.90
2023-07-04T11:54:45.818Z,26.90
2023-07-04T11:56:47.623Z,26.90
2023-07-04T11:59:09.284Z,26.90
2023-07-04T12:01:11.408Z,26.90
2023-07-04T12:03:19.555Z,26.90
2023-07-04T12:05:36.826Z,26.90
2023-07-04T12:07:47.365Z,27.00
2023-07-04T12:09:49.677Z,27.10
2023-07-04T12:11:52.486Z,27.10
2023-07-04T12:13:55.147Z,27.20
2023-07-04T12:15:57.351Z,27.20
2023-07-04T12:18:00.056Z,27.30
2023-07-04T12:20:04.844Z,27.40
2023-07-04T12:22:09.226Z,27.50
2023-07-04T12:24:12.114Z,27.60
2023-07-04T12:26:22.366Z,27.60
2023-07-04T12:28:25.459Z,27.70
2023-07-04T12:30:38.822Z,27.80
2023-07-04T12:32:41.293Z,27.90
2023-07-04T12:39:05.995Z,28.00
2023-07-04T12:41:07.998Z,28.10
2023-07-04T12:45:16.868Z,28.10
2023-07-04T12:47:22.260Z,28.20
2023-07-04T12:49:29.716Z,28.20
2023-07-04T12:51:33.836Z,28.30
2023-07-04T12:53:35.727Z,28.30
2023-07-04T12:55:38.168Z,28.30
2023-07-04T12:57:40.051Z,28.40
2023-07-04T12:59:42.081Z,28.30
2023-07-04T13:01:43.959Z,28.30
2023-07-04T13:03:46.663Z,28.40
2023-07-04T13:05:50.495Z,28.40
2023-07-04T13:07:52.260Z,28.40
2023-07-04T13:09:58.021Z,28.50
2023-07-04T13:12:00.892Z,28.50
2023-07-04T13:14:09.894Z,28.60
2023-07-04T13:16:14.818Z,28.60
2023-07-04T13:18:35.598Z,28.60
2023-07-04T13:20:38.789Z,28.60
2023-07-04T13:26:57.622Z,28.80
2023-07-04T13:33:29.865Z,29.00
2023-07-04T13:35:40.643Z,29.10
2023-07-04T13:39:53.123Z,29.20
2023-07-04T13:41:56.514Z,29.20
2023-07-04T13:46:11.835Z,29.30
2023-07-04T13:48:13.730Z,29.30
2023-07-04T13:50:15.652Z,29.40
2023-07-04T13:52:17.825Z,29.40
2023-07-04T13:54:19.605Z,29.50
2023-07-04T13:56:21.376Z,29.40
2023-07-04T13:58:23.145Z,29.50
2023-07-04T14:00:35.195Z,29.50
2023-07-04T14:06:56.183Z,29.50
2023-07-04T14:08:58.285Z,29.50
2023-07-04T14:11:10.845Z,29.50
2023-07-04T14:13:20.566Z,29.40
2023-07-04T14:16:37.334Z,29.50
2023-07-04T14:19:56.767Z,29.40
2023-07-04T14:20:07.658Z,29.40
2023-07-04T14:22:09.892Z,29.40
2023-07-04T14:24:11.792Z,29.40
2023-07-04T14:26:22.496Z,29.40
2023-07-04T14:28:29.542Z,29.40
2023-07-04T14:30:31.304Z,29.30
2023-07-04T14:32:36.787Z,29.30
2023-07-04T14:34:41.351Z,29.20
2023-07-04T14:36:43.248Z,29.20
2023-07-04T14:38:45.460Z,29.20
2023-07-04T14:42:51.875Z,29.10
2023-07-04T14:44:53.637Z,29.10
2023-07-04T14:46:55.706Z,29.20
2023-07-04T14:48:57.667Z,29.20
2023-07-04T14:51:00.358Z,29.10
2023-07-04T14:53:02.161Z,29.20
2023-07-04T14:55:09.354Z,29.10
2023-07-04T14:57:11.040Z,29.20
2023-07-04T14:59:12.802Z,29.20
2023-07-04T15:01:24.120Z,29.20
2023-07-04T15:03:27.339Z,29.30
2023-07-04T15:05:29.128Z,29.30
2023-07-04T15:07:30.773Z,29.40
2023-07-04T15:09:32.872Z,29.40
2023-07-04T15:11:37.597Z,29.60
2023-07-04T15:13:39.583Z,29.60
2023-07-04T15:15:41.312Z,29.70
2023-07-04T15:17:42.997Z,29.80
2023-07-04T15:19:45.888Z,29.90
2023-07-04T15:21:47.692Z,30.00
2023-07-04T15:23:49.547Z,30.10
2023-07-04T15:25:52.645Z,30.20
2023-07-04T15:27:55.722Z,30.30
2023-07-04T15:29:57.813Z,30.30
2023-07-04T15:32:02.438Z,30.40
2023-07-04T15:34:04.254Z,30.40
2023-07-04T15:36:06.244Z,30.50
2023-07-04T15:38:07.927Z,30.60
2023-07-04T15:40:09.922Z,30.60
2023-07-04T15:42:11.764Z,30.70
2023-07-04T15:44:13.488Z,30.70
2023-07-04T15:46:15.924Z,30.80
2023-07-04T15:48:17.718Z,30.80
2023-07-04T15:50:19.534Z,30.90
2023-07-04T15:52:21.399Z,30.90
2023-07-04T15:54:23.445Z,31.00
2023-07-04T15:56:25.201Z,31.00
2023-07-04T15:58:29.781Z,31.00
2023-07-04T16:00:31.577Z,31.10
2023-07-04T16:02:33.428Z,31.10
2023-07-04T16:04:37.045Z,31.00
2023-07-04T16:06:39.260Z,31.00
2023-07-04T16:08:41.747Z,31.00
2023-07-04T16:10:43.574Z,30.90
2023-07-04T16:12:45.993Z,30.90
2023-07-04T16:14:47.818Z,30.80
2023-07-04T16:16:49.580Z,30.80
2023-07-04T16:18:51.361Z,30.80
2023-07-04T16:20:53.667Z,30.80
2023-07-04T16:22:55.577Z,30.80
2023-07-04T16:24:57.348Z,30.80
2023-07-04T16:26:59.064Z,30.80
2023-07-04T16:29:01.024Z,30.80
2023-07-04T16:31:03.737Z,30.80
2023-07-04T16:33:05.543Z,30.80
2023-07-04T16:35:07.535Z,30.80
2023-07-04T16:37:09.227Z,30.80
2023-07-04T16:39:11.084Z,30.80
2023-07-04T16:41:13.540Z,30.80
2023-07-04T16:43:15.269Z,30.70
2023-07-04T16:45:17.082Z,30.70
2023-07-04T16:47:19.473Z,30.60
2023-07-04T16:49:21.171Z,30.60
2023-07-04T16:51:22.855Z,30.60
2023-07-04T16:53:25.008Z,30.60
2023-07-04T16:55:35.772Z,30.60
2023-07-04T16:57:37.505Z,30.60
2023-07-04T16:59:39.316Z,30.50
2023-07-04T17:01:41.560Z,30.50
2023-07-04T17:03:45.384Z,30.50
2023-07-04T17:05:48.195Z,30.40
2023-07-04T17:07:50.122Z,30.40
2023-07-04T17:09:51.799Z,30.40
2023-07-04T17:12:05.339Z,30.30
2023-07-04T17:14:08.346Z,30.30
2023-07-04T17:16:11.035Z,30.20
2023-07-04T17:18:12.834Z,30.20
2023-07-04T17:20:14.739Z,30.10
2023-07-04T17:22:16.647Z,30.10
2023-07-04T17:24:18.421Z,30.00
2023-07-04T17:26:20.184Z,29.90
2023-07-04T17:28:22.117Z,29.90
2023-07-04T17:30:23.817Z,29.80
2023-07-04T17:32:25.629Z,29.70
2023-07-04T17:34:28.962Z,29.70
2023-07-04T17:36:31.487Z,29.60
2023-07-04T17:38:34.639Z,29.50
2023-07-04T17:40:38.187Z,29.40
2023-07-04T17:42:40.519Z,29.30
2023-07-04T17:44:42.250Z,29.20
2023-07-04T17:46:43.939Z,29.20
2023-07-04T17:48:46.376Z,29.10
2023-07-04T17:50:48.212Z,29.00
2023-07-04T17:52:49.926Z,28.90
2023-07-04T17:54:51.723Z,28.90
2023-07-04T17:56:53.768Z,28.80
2023-07-04T17:58:55.531Z,28.70
2023-07-04T18:01:01.711Z,28.60
2023-07-04T18:03:03.672Z,28.60
2023-07-04T18:05:05.582Z,28.50
2023-07-04T18:07:08.971Z,28.40
2023-07-04T18:09:10.976Z,28.30
2023-07-04T18:11:17.342Z,28.30
2023-07-04T18:13:19.036Z,28.20
2023-07-04T18:15:20.918Z,28.20
2023-07-04T18:17:23.044Z,28.10
2023-07-04T18:19:24.876Z,28.00
2023-07-04T18:21:26.814Z,28.00
2023-07-04T18:23:28.645Z,27.90
2023-07-04T18:25:30.427Z,27.90
2023-07-04T18:27:32.531Z,27.80
2023-07-04T18:29:34.596Z,27.70
2023-07-04T18:31:36.548Z,27.70
2023-07-04T18:33:39.512Z,27.60
2023-07-04T18:35:41.510Z,27.60
2023-07-04T18:37:43.230Z,27.60
2023-07-04T18:39:45.211Z,27.50
2023-07-04T18:41:47.046Z,27.40
2023-07-04T18:43:49.177Z,27.40
2023-07-04T18:45:50.924Z,27.30
2023-07-04T18:47:56.522Z,27.30
2023-07-04T18:49:58.330Z,27.20
2023-07-04T18:52:00.165Z,27.20
2023-07-04T18:54:02.626Z,27.10
2023-07-04T18:56:04.558Z,27.10
2023-07-04T18:58:06.831Z,27.00
2023-07-04T19:00:08.967Z,27.00
2023-07-04T19:02:11.156Z,26.90
2023-07-04T19:04:13.405Z,26.90
2023-07-04T19:06:16.505Z,26.80
2023-07-04T19:08:18.363Z,26.80
2023-07-04T19:10:20.780Z,26.80
2023-07-04T19:12:22.679Z,26.70
2023-07-04T19:14:24.526Z,26.70
2023-07-04T19:16:27.851Z,26.70
2023-07-04T19:18:29.752Z,26.60
2023-07-04T19:20:31.527Z,26.60
2023-07-04T19:22:34.511Z,26.60
2023-07-04T19:24:38.299Z,26.60
2023-07-04T19:26:40.232Z,26.60
2023-07-04T19:28:41.959Z,26.50
2023-07-04T19:30:44.526Z,26.50
2023-07-04T19:32:46.424Z,26.50
2023-07-04T19:34:48.302Z,26.50
2023-07-04T19:36:51.939Z,26.40
2023-07-04T19:38:53.837Z,26.40
2023-07-04T19:41:03.247Z,26.40
2023-07-04T19:43:05.405Z,26.40
2023-07-04T19:45:07.552Z,26.30
2023-07-04T19:47:09.386Z,26.30
2023-07-04T19:49:12.849Z,26.30
2023-07-04T19:51:16.767Z,26.20
2023-07-04T19:53:19.190Z,26.20
2023-07-04T19:55:20.982Z,26.20
2023-07-04T19:57:23.016Z,26.10
2023-07-04T19:59:25.331Z,26.10
2023-07-04T20:01:28.154Z,26.10
2023-07-04T20:03:30.099Z,26.00
2023-07-04T20:05:31.963Z,26.00
2023-07-04T20:07:33.716Z,25.90
2023-07-04T20:09:35.569Z,25.90
2023-07-04T20:11:37.614Z,25.90
2023-07-04T20:13:39.846Z,25.80
2023-07-04T20:15:44.411Z,25.80
2023-07-04T20:17:46.192Z,25.70
2023-07-04T20:19:48.767Z,25.70
2023-07-04T20:21:50.674Z,25.70
2023-07-04T20:23:52.576Z,25.60
2023-07-04T20:25:55.084Z,25.60
2023-07-04T20:27:57.289Z,25.60
2023-07-04T20:29:58.998Z,25.50
2023-07-04T20:32:01.056Z,25.50
2023-07-04T20:34:03.302Z,25.50
2023-07-04T20:36:05.622Z,25.50
2023-07-04T20:38:07.525Z,25.40
2023-07-04T20:40:09.955Z,25.40
2023-07-04T20:42:11.812Z,25.40
2023-07-04T20:44:13.595Z,25.40
2023-07-04T20:46:15.349Z,25.30
2023-07-04T20:48:17.188Z,25.30
2023-07-04T20:50:19.799Z,25.30
2023-07-04T20:52:23.592Z,25.20
2023-07-04T20:54:25.602Z,25.20
2023-07-04T20:56:27.363Z,25.20
2023-07-04T20:58:29.133Z,25.10
2023-07-04T21:00:33.512Z,25.10
2023-07-04T21:02:35.282Z,25.00
2023-07-04T21:04:37.085Z,25.00
2023-07-04T21:06:38.910Z,25.00
2023-07-04T21:08:40.767Z,24.90
2023-07-04T21:10:42.464Z,24.90
2023-07-04T21:12:44.259Z,24.80
2023-07-04T21:14:54.895Z,24.80
2023-07-04T21:16:56.717Z,24.70
2023-07-04T21:18:58.439Z,24.70
2023-07-04T21:21:00.282Z,24.60
2023-07-04T21:23:02.087Z,24.60
2023-07-04T21:25:05.582Z,24.60
2023-07-04T21:27:07.488Z,24.50
2023-07-04T21:29:09.228Z,24.50
2023-07-04T21:31:11.656Z,24.40
2023-07-04T21:33:13.496Z,24.40
2023-07-04T21:35:15.333Z,24.30
2023-07-04T21:37:17.180Z,24.30
2023-07-04T21:39:18.950Z,24.30
2023-07-04T21:41:21.189Z,24.20
2023-07-04T21:43:23.099Z,24.20
2023-07-04T21:45:30.722Z,24.10
2023-07-04T21:47:33.164Z,24.10
2023-07-04T21:49:35.595Z,24.00
2023-07-04T21:51:37.391Z,24.00
2023-07-04T21:53:40.217Z,24.00
2023-07-04T21:56:00.258Z,23.90
2023-07-04T21:58:02.044Z,23.80
2023-07-04T22:00:04.905Z,23.80
2023-07-04T22:02:06.736Z,23.70
2023-07-04T22:04:08.879Z,23.70
2023-07-04T22:06:12.514Z,23.70
2023-07-04T22:08:14.994Z,23.60
2023-07-04T22:10:16.775Z,23.60
2023-07-04T22:12:18.450Z,23.50
2023-07-04T22:14:31.991Z,23.50
2023-07-04T22:16:39.536Z,23.40
2023-07-04T22:18:41.300Z,23.40
2023-07-04T22:20:45.007Z,23.30
2023-07-04T22:22:46.821Z,23.30
2023-07-04T22:24:48.687Z,23.20
2023-07-04T22:26:50.339Z,23.20
2023-07-04T22:28:52.909Z,23.10
2023-07-04T22:30:57.923Z,23.10
2023-07-04T22:32:59.704Z,23.10
2023-07-04T22:35:01.575Z,23.10
2023-07-04T22:37:03.358Z,23.00
2023-07-04T22:39:05.383Z,23.00
2023-07-04T22:41:07.345Z,22.90
2023-07-04T22:43:09.303Z,22.90
2023-07-04T22:45:11.249Z,22.90
2023-07-04T22:47:12.923Z,22.80
2023-07-04T22:49:14.610Z,22.80
2023-07-04T22:51:16.424Z,22.70
2023-07-04T22:53:18.125Z,22.70
2023-07-04T22:55:20.073Z,22.70
2023-07-04T22:57:21.806Z,22.70
2023-07-04T22:59:23.789Z,22.70
2023-07-04T23:01:28.601Z,22.60
2023-07-04T23:03:30.418Z,22.60
2023-07-04T23:05:32.922Z,22.60
2023-07-04T23:07:34.605Z,22.60
2023-07-04T23:09:36.635Z,22.60
2023-07-04T23:11:38.416Z,22.50
2023-07-04T23:13:40.575Z,22.50
2023-07-04T23:15:42.297Z,22.50
2023-07-04T23:17:44.016Z,22.50
2023-07-04T23:19:45.727Z,22.50
2023-07-04T23:21:47.583Z,22.50
2023-07-04T23:23:50.534Z,22.50
2023-07-04T23:25:52.532Z,22.50
2023-07-04T23:27:54.440Z,22.40
2023-07-04T23:29:56.168Z,22.50
2023-07-04T23:31:58.177Z,22.50
2023-07-04T23:34:00.607Z,22.40
2023-07-04T23:36:02.785Z,22.40
2023-07-04T23:38:05.047Z,22.40
2023-07-04T23:40:06.957Z,22.50
2023-07-04T23:42:08.732Z,22.40
2023-07-04T23:44:10.379Z,22.50
2023-07-04T23:46:12.164Z,22.40
2023-07-04T23:48:14.235Z,22.50
2023-07-04T23:50:16.165Z,22.50
2023-07-04T23:52:17.999Z,22.50
2023-07-04T23:54:19.672Z,22.50
2023-07-04T23:56:22.510Z,22.50
2023-07-04T23:58:24.554Z,22.50
